sensor_id;sensor_type;location;lat;lon;timestamp;pressure;altitude;pressure_sealevel;temperature;humidity
76195;BME280;64964;48.694;21.206;2023-02-28T00:02:10;98951.63;;;-1.86;57.22
76195;BME280;64964;48.694;21.206;2023-02-28T00:04:35;98970.81;;;-1.90;57.52
76195;BME280;64964;48.694;21.206;2023-02-28T00:07:00;98963.03;;;-1.90;56.94
76195;BME280;64964;48.694;21.206;2023-02-28T00:09:26;98961.28;;;-1.89;57.36
76195;BME280;64964;48.694;21.206;2023-02-28T00:11:51;98961.28;;;-1.89;57.47
76195;BME280;64964;48.694;21.206;2023-02-28T00:14:16;98964.69;;;-1.89;57.18
76195;BME280;64964;48.694;21.206;2023-02-28T00:16:42;98971.72;;;-1.91;57.64
76195;BME280;64964;48.694;21.206;2023-02-28T00:19:07;98965.81;;;-1.94;57.96
76195;BME280;64964;48.694;21.206;2023-02-28T00:21:33;98957.13;;;-1.93;57.82
76195;BME280;64964;48.694;21.206;2023-02-28T00:23:58;98965.81;;;-1.94;57.50
76195;BME280;64964;48.694;21.206;2023-02-28T00:26:23;98969.34;;;-1.95;57.69
76195;BME280;64964;48.694;21.206;2023-02-28T00:28:49;98969.34;;;-1.95;57.68
76195;BME280;64964;48.694;21.206;2023-02-28T00:31:17;98969.38;;;-1.97;57.94
76195;BME280;64964;48.694;21.206;2023-02-28T00:33:43;98974.56;;;-1.97;58.05
76195;BME280;64964;48.694;21.206;2023-02-28T00:36:10;98977.16;;;-1.97;58.20
76195;BME280;64964;48.694;21.206;2023-02-28T00:38:37;98982.53;;;-2.02;58.04
76195;BME280;64964;48.694;21.206;2023-02-28T00:41:02;98981.69;;;-2.02;58.11
76195;BME280;64964;48.694;21.206;2023-02-28T00:43:30;98993.81;;;-2.03;58.49
76195;BME280;64964;48.694;21.206;2023-02-28T00:45:55;98997.25;;;-2.02;58.23
76195;BME280;64964;48.694;21.206;2023-02-28T00:48:21;99006.00;;;-2.05;58.59
76195;BME280;64964;48.694;21.206;2023-02-28T00:50:49;98997.38;;;-2.05;58.56
76195;BME280;64964;48.694;21.206;2023-02-28T00:53:14;98996.47;;;-2.04;58.66
76195;BME280;64964;48.694;21.206;2023-02-28T00:55:40;98989.47;;;-2.02;58.45
76195;BME280;64964;48.694;21.206;2023-02-28T00:58:05;98988.84;;;-2.07;58.87
76195;BME280;64964;48.694;21.206;2023-02-28T01:00:30;98996.59;;;-2.07;58.86
76195;BME280;64964;48.694;21.206;2023-02-28T01:02:56;98994.84;;;-2.07;58.56
76195;BME280;64964;48.694;21.206;2023-02-28T01:05:21;98992.25;;;-2.07;58.66
76195;BME280;64964;48.694;21.206;2023-02-28T01:07:46;98983.72;;;-2.09;58.85
76195;BME280;64964;48.694;21.206;2023-02-28T01:10:12;98988.00;;;-2.08;58.96
76195;BME280;64964;48.694;21.206;2023-02-28T01:12:37;98990.59;;;-2.08;58.78
76195;BME280;64964;48.694;21.206;2023-02-28T01:15:03;98997.44;;;-2.07;58.96
76195;BME280;64964;48.694;21.206;2023-02-28T01:17:29;98997.56;;;-2.10;58.94
76195;BME280;64964;48.694;21.206;2023-02-28T01:19:55;98993.31;;;-2.11;59.05
76195;BME280;64964;48.694;21.206;2023-02-28T01:22:21;98984.69;;;-2.11;58.86
76195;BME280;64964;48.694;21.206;2023-02-28T01:24:46;98989.81;;;-2.10;59.25
76195;BME280;64964;48.694;21.206;2023-02-28T01:27:12;98998.47;;;-2.11;59.05
76195;BME280;64964;48.694;21.206;2023-02-28T01:29:38;98986.44;;;-2.12;58.89
76195;BME280;64964;48.694;21.206;2023-02-28T01:32:03;98989.88;;;-2.11;59.07
76195;BME280;64964;48.694;21.206;2023-02-28T01:34:29;98990.78;;;-2.12;59.24
76195;BME280;64964;48.694;21.206;2023-02-28T01:36:54;98988.97;;;-2.10;59.16
76195;BME280;64964;48.694;21.206;2023-02-28T01:39:19;98989.88;;;-2.11;59.26
76195;BME280;64964;48.694;21.206;2023-02-28T01:41:45;98988.13;;;-2.11;59.31
76195;BME280;64964;48.694;21.206;2023-02-28T01:47:13;98988.97;;;-2.10;59.27
76195;BME280;64964;48.694;21.206;2023-02-28T01:49:39;98994.97;;;-2.10;59.06
76195;BME280;64964;48.694;21.206;2023-02-28T01:52:05;99001.06;;;-2.11;59.13
76195;BME280;64964;48.694;21.206;2023-02-28T01:54:34;99002.63;;;-2.07;58.93
76195;BME280;64964;48.694;21.206;2023-02-28T01:57:12;99000.13;;;-2.08;59.08
76195;BME280;64964;48.694;21.206;2023-02-28T01:59:48;99006.91;;;-2.06;58.73
76195;BME280;64964;48.694;21.206;2023-02-28T02:02:18;99012.28;;;-2.10;59.05
76195;BME280;64964;48.694;21.206;2023-02-28T02:07:18;99008.59;;;-2.05;58.82
76195;BME280;64964;48.694;21.206;2023-02-28T02:09:44;99005.13;;;-2.05;58.54
76195;BME280;64964;48.694;21.206;2023-02-28T02:15:09;99013.78;;;-2.05;58.48
76195;BME280;64964;48.694;21.206;2023-02-28T02:17:40;99006.66;;;-1.99;58.30
76195;BME280;64964;48.694;21.206;2023-02-28T02:28:40;99013.44;;;-1.97;58.14
76195;BME280;64964;48.694;21.206;2023-02-28T02:36:42;99023.75;;;-1.95;58.19
76195;BME280;64964;48.694;21.206;2023-02-28T02:41:53;99022.72;;;-1.91;57.68
76195;BME280;64964;48.694;21.206;2023-02-28T02:44:24;99027.94;;;-1.93;57.82
76195;BME280;64964;48.694;21.206;2023-02-28T02:46:55;99023.53;;;-1.91;57.74
76195;BME280;64964;48.694;21.206;2023-02-28T02:49:31;99025.22;;;-1.90;57.81
76195;BME280;64964;48.694;21.206;2023-02-28T02:52:02;99023.47;;;-1.89;57.79
76195;BME280;64964;48.694;21.206;2023-02-28T02:54:33;99021.72;;;-1.89;57.84
76195;BME280;64964;48.694;21.206;2023-02-28T02:57:03;99019.13;;;-1.89;57.52
76195;BME280;64964;48.694;21.206;2023-02-28T02:59:30;99012.19;;;-1.88;57.53
76195;BME280;64964;48.694;21.206;2023-02-28T03:02:00;99018.28;;;-1.89;57.52
76195;BME280;64964;48.694;21.206;2023-02-28T03:04:30;99012.97;;;-1.86;57.64
76195;BME280;64964;48.694;21.206;2023-02-28T03:06:57;99016.53;;;-1.89;57.72
76195;BME280;64964;48.694;21.206;2023-02-28T03:09:23;99008.75;;;-1.89;57.41
76195;BME280;64964;48.694;21.206;2023-02-28T03:11:49;99018.41;;;-1.92;57.53
76195;BME280;64964;48.694;21.206;2023-02-28T03:20:31;99016.59;;;-1.90;57.50
76195;BME280;64964;48.694;21.206;2023-02-28T03:23:20;99016.41;;;-1.86;57.53
76195;BME280;64964;48.694;21.206;2023-02-28T03:25:56;99011.34;;;-1.89;57.46
76195;BME280;64964;48.694;21.206;2023-02-28T03:28:43;99019.13;;;-1.89;57.42
76195;BME280;64964;48.694;21.206;2023-02-28T03:31:35;99007.78;;;-1.86;57.39
76195;BME280;64964;48.694;21.206;2023-02-28T03:34:07;99015.56;;;-1.86;57.45
76195;BME280;64964;48.694;21.206;2023-02-28T03:36:39;99012.25;;;-1.90;57.33
76195;BME280;64964;48.694;21.206;2023-02-28T03:39:13;99012.19;;;-1.88;57.17
76195;BME280;64964;48.694;21.206;2023-02-28T03:44:14;99015.50;;;-1.85;57.23
76195;BME280;64964;48.694;21.206;2023-02-28T03:46:48;99008.63;;;-1.86;57.31
76195;BME280;64964;48.694;21.206;2023-02-28T03:49:24;99007.72;;;-1.85;57.25
76195;BME280;64964;48.694;21.206;2023-02-28T03:51:51;99020.56;;;-1.82;57.19
76195;BME280;64964;48.694;21.206;2023-02-28T03:54:45;99011.94;;;-1.82;56.97
76195;BME280;64964;48.694;21.206;2023-02-28T03:57:26;99002.41;;;-1.82;57.04
76195;BME280;64964;48.694;21.206;2023-02-28T04:00:00;99005.78;;;-1.80;57.01
76195;BME280;64964;48.694;21.206;2023-02-28T04:02:29;99015.16;;;-1.77;56.97
76195;BME280;64964;48.694;21.206;2023-02-28T04:04:55;99013.28;;;-1.73;56.64
76195;BME280;64964;48.694;21.206;2023-02-28T04:07:20;99014.94;;;-1.72;56.81
76195;BME280;64964;48.694;21.206;2023-02-28T04:09:46;99015.78;;;-1.72;56.74
76195;BME280;64964;48.694;21.206;2023-02-28T04:12:11;99008.69;;;-1.67;56.48
76195;BME280;64964;48.694;21.206;2023-02-28T04:14:37;99015.59;;;-1.67;56.60
76195;BME280;64964;48.694;21.206;2023-02-28T04:17:02;99015.47;;;-1.64;56.88
76195;BME280;64964;48.694;21.206;2023-02-28T04:19:27;99004.88;;;-1.60;56.56
76195;BME280;64964;48.694;21.206;2023-02-28T04:21:53;99009.19;;;-1.59;56.37
76195;BME280;64964;48.694;21.206;2023-02-28T04:24:25;99011.69;;;-1.57;56.27
76195;BME280;64964;48.694;21.206;2023-02-28T04:26:52;99000.34;;;-1.55;56.35
76195;BME280;64964;48.694;21.206;2023-02-28T04:29:29;99007.91;;;-1.50;56.25
76195;BME280;64964;48.694;21.206;2023-02-28T04:31:56;99010.44;;;-1.48;56.23
76195;BME280;64964;48.694;21.206;2023-02-28T04:34:23;99007.06;;;-1.51;56.13
76195;BME280;64964;48.694;21.206;2023-02-28T04:36:49;99007.00;;;-1.49;55.83
76195;BME280;64964;48.694;21.206;2023-02-28T04:39:16;99003.28;;;-1.43;55.83
76195;BME280;64964;48.694;21.206;2023-02-28T04:41:44;99011.91;;;-1.43;56.10
76195;BME280;64964;48.694;21.206;2023-02-28T04:44:09;99021.00;;;-1.34;56.15
76195;BME280;64964;48.694;21.206;2023-02-28T04:46:35;99012.25;;;-1.32;55.95
76195;BME280;64964;48.694;21.206;2023-02-28T04:49:00;99014.72;;;-1.29;56.01
76195;BME280;64964;48.694;21.206;2023-02-28T04:51:26;99009.38;;;-1.26;56.03
76195;BME280;64964;48.694;21.206;2023-02-28T04:53:51;99008.47;;;-1.24;55.84
76195;BME280;64964;48.694;21.206;2023-02-28T04:56:18;99006.59;;;-1.21;55.80
76195;BME280;64964;48.694;21.206;2023-02-28T04:58:44;99004.63;;;-1.16;55.47
76195;BME280;64964;48.694;21.206;2023-02-28T05:04:10;98999.28;;;-1.13;55.67
76195;BME280;64964;48.694;21.206;2023-02-28T05:06:35;99003.63;;;-1.13;55.46
76195;BME280;64964;48.694;21.206;2023-02-28T05:09:01;98990.50;;;-1.10;55.52
76195;BME280;64964;48.694;21.206;2023-02-28T05:11:29;99000.75;;;-1.07;55.16
76195;BME280;64964;48.694;21.206;2023-02-28T05:14:03;99008.53;;;-1.07;55.29
76195;BME280;64964;48.694;21.206;2023-02-28T05:16:29;99007.47;;;-1.03;55.23
76195;BME280;64964;48.694;21.206;2023-02-28T05:18:54;99004.88;;;-1.03;54.94
76195;BME280;64964;48.694;21.206;2023-02-28T05:23:59;99013.19;;;-0.96;55.12
76195;BME280;64964;48.694;21.206;2023-02-28T05:26:25;99022.69;;;-0.95;55.14
76195;BME280;64964;48.694;21.206;2023-02-28T05:28:51;99020.81;;;-0.92;55.20
76195;BME280;64964;48.694;21.206;2023-02-28T05:31:17;99026.66;;;-0.88;54.70
76195;BME280;64964;48.694;21.206;2023-02-28T05:33:42;99026.53;;;-0.85;54.86
76195;BME280;64964;48.694;21.206;2023-02-28T05:36:08;99022.03;;;-0.82;55.12
76195;BME280;64964;48.694;21.206;2023-02-28T05:38:33;99017.59;;;-0.80;55.01
76195;BME280;64964;48.694;21.206;2023-02-28T05:40:59;99024.31;;;-0.76;54.62
76195;BME280;64964;48.694;21.206;2023-02-28T05:43:24;99026.78;;;-0.72;54.90
76195;BME280;64964;48.694;21.206;2023-02-28T05:45:50;99040.53;;;-0.70;54.87
76195;BME280;64964;48.694;21.206;2023-02-28T05:48:15;99040.31;;;-0.66;54.85
76195;BME280;64964;48.694;21.206;2023-02-28T05:50:43;99036.72;;;-0.63;54.75
76195;BME280;64964;48.694;21.206;2023-02-28T05:53:11;99054.63;;;-0.57;54.54
76195;BME280;64964;48.694;21.206;2023-02-28T05:55:36;99052.88;;;-0.57;54.59
76195;BME280;64964;48.694;21.206;2023-02-28T05:58:02;99052.16;;;-0.60;54.17
76195;BME280;64964;48.694;21.206;2023-02-28T06:00:28;99055.22;;;-0.52;54.57
76195;BME280;64964;48.694;21.206;2023-02-28T06:02:53;99053.34;;;-0.48;54.63
76195;BME280;64964;48.694;21.206;2023-02-28T06:05:21;99061.00;;;-0.45;54.59
76195;BME280;64964;48.694;21.206;2023-02-28T06:07:47;99062.44;;;-0.40;54.23
76195;BME280;64964;48.694;21.206;2023-02-28T06:10:13;99057.00;;;-0.35;54.18
76195;BME280;64964;48.694;21.206;2023-02-28T06:12:38;99051.81;;;-0.35;53.95
76195;BME280;64964;48.694;21.206;2023-02-28T06:15:04;99056.94;;;-0.34;53.74
76195;BME280;64964;48.694;21.206;2023-02-28T06:17:30;99065.59;;;-0.33;53.52
76195;BME280;64964;48.694;21.206;2023-02-28T06:19:55;99060.22;;;-0.30;53.71
76195;BME280;64964;48.694;21.206;2023-02-28T06:22:20;99060.31;;;-0.32;53.73
76195;BME280;64964;48.694;21.206;2023-02-28T06:24:46;99067.25;;;-0.32;53.83
76195;BME280;64964;48.694;21.206;2023-02-28T06:27:11;99066.19;;;-0.28;53.85
76195;BME280;64964;48.694;21.206;2023-02-28T06:29:36;99062.59;;;-0.26;53.79
76195;BME280;64964;48.694;21.206;2023-02-28T06:32:05;99068.44;;;-0.20;53.95
76195;BME280;64964;48.694;21.206;2023-02-28T06:34:31;99069.19;;;-0.18;53.52
76195;BME280;64964;48.694;21.206;2023-02-28T06:36:56;99068.34;;;-0.19;53.45
76195;BME280;64964;48.694;21.206;2023-02-28T06:39:27;99067.34;;;-0.16;53.75
76195;BME280;64964;48.694;21.206;2023-02-28T06:41:52;99069.09;;;-0.17;53.42
76195;BME280;64964;48.694;21.206;2023-02-28T06:44:18;99067.34;;;-0.16;53.43
76195;BME280;64964;48.694;21.206;2023-02-28T06:46:44;99065.41;;;-0.13;53.53
76195;BME280;64964;48.694;21.206;2023-02-28T06:49:11;99064.53;;;-0.12;53.60
76195;BME280;64964;48.694;21.206;2023-02-28T06:51:38;99063.38;;;-0.06;53.52
76195;BME280;64964;48.694;21.206;2023-02-28T06:54:05;99059.84;;;-0.05;53.46
76195;BME280;64964;48.694;21.206;2023-02-28T06:56:34;99048.13;;;0.04;53.30
76195;BME280;64964;48.694;21.206;2023-02-28T06:59:00;99054.03;;;0.07;53.08
76195;BME280;64964;48.694;21.206;2023-02-28T07:01:27;99062.53;;;0.11;53.10
76195;BME280;64964;48.694;21.206;2023-02-28T07:03:54;99058.69;;;0.18;52.89
76195;BME280;64964;48.694;21.206;2023-02-28T07:06:22;99060.13;;;0.23;52.96
76195;BME280;64964;48.694;21.206;2023-02-28T07:08:49;99058.75;;;0.34;52.59
76195;BME280;64964;48.694;21.206;2023-02-28T07:11:14;99063.72;;;0.38;52.39
76195;BME280;64964;48.694;21.206;2023-02-28T07:13:40;99059.13;;;0.43;51.74
76195;BME280;64964;48.694;21.206;2023-02-28T07:16:08;99056.88;;;0.53;52.43
76195;BME280;64964;48.694;21.206;2023-02-28T07:18:35;99059.16;;;0.59;51.92
76195;BME280;64964;48.694;21.206;2023-02-28T07:21:09;99067.41;;;0.67;51.94
76195;BME280;64964;48.694;21.206;2023-02-28T07:23:35;99062.19;;;0.67;51.46
76195;BME280;64964;48.694;21.206;2023-02-28T07:26:01;99062.84;;;0.71;51.84
76195;BME280;64964;48.694;21.206;2023-02-28T07:28:26;99066.75;;;0.80;51.98
76195;BME280;64964;48.694;21.206;2023-02-28T07:30:51;99067.16;;;0.88;51.56
76195;BME280;64964;48.694;21.206;2023-02-28T07:33:17;99067.84;;;1.07;51.17
76195;BME280;64964;48.694;21.206;2023-02-28T07:35:43;99060.09;;;1.37;51.07
76195;BME280;64964;48.694;21.206;2023-02-28T07:38:08;99059.28;;;1.83;49.88
76195;BME280;64964;48.694;21.206;2023-02-28T07:40:35;99059.34;;;2.25;50.56
76195;BME280;64964;48.694;21.206;2023-02-28T07:43:01;99062.72;;;2.99;49.67
76195;BME280;64964;48.694;21.206;2023-02-28T07:45:27;99062.41;;;3.99;48.43
76195;BME280;64964;48.694;21.206;2023-02-28T07:47:54;99063.53;;;4.97;46.79
76195;BME280;64964;48.694;21.206;2023-02-28T07:50:19;99068.53;;;5.73;44.91
76195;BME280;64964;48.694;21.206;2023-02-28T07:52:45;99068.00;;;6.16;44.28
76195;BME280;64964;48.694;21.206;2023-02-28T07:55:10;99063.84;;;6.25;43.18
76195;BME280;64964;48.694;21.206;2023-02-28T07:57:36;99067.31;;;6.26;42.95
76195;BME280;64964;48.694;21.206;2023-02-28T08:00:06;99067.53;;;6.22;42.98
76195;BME280;64964;48.694;21.206;2023-02-28T08:02:32;99061.72;;;6.41;43.07
76195;BME280;64964;48.694;21.206;2023-02-28T08:04:57;99069.75;;;6.51;41.98
76195;BME280;64964;48.694;21.206;2023-02-28T08:07:24;99076.91;;;6.60;42.41
76195;BME280;64964;48.694;21.206;2023-02-28T08:09:50;99081.59;;;6.68;42.70
76195;BME280;64964;48.694;21.206;2023-02-28T08:12:15;99075.25;;;6.59;42.59
76195;BME280;64964;48.694;21.206;2023-02-28T08:14:40;99077.09;;;6.35;41.05
76195;BME280;64964;48.694;21.206;2023-02-28T08:17:06;99092.06;;;5.99;41.70
76195;BME280;64964;48.694;21.206;2023-02-28T08:19:32;99097.84;;;5.67;42.38
76195;BME280;64964;48.694;21.206;2023-02-28T08:21:57;99091.06;;;5.28;41.99
76195;BME280;64964;48.694;21.206;2023-02-28T08:24:23;99087.66;;;5.02;43.35
76195;BME280;64964;48.694;21.206;2023-02-28T08:26:49;99089.88;;;4.83;43.21
76195;BME280;64964;48.694;21.206;2023-02-28T08:29:15;99089.38;;;4.65;43.74
76195;BME280;64964;48.694;21.206;2023-02-28T08:31:41;99096.69;;;4.47;43.47
76195;BME280;64964;48.694;21.206;2023-02-28T08:34:07;99092.28;;;4.35;44.37
76195;BME280;64964;48.694;21.206;2023-02-28T08:36:32;99101.56;;;4.26;44.19
76195;BME280;64964;48.694;21.206;2023-02-28T08:38:58;99103.13;;;4.16;44.21
76195;BME280;64964;48.694;21.206;2023-02-28T08:41:25;99102.50;;;4.12;44.88
76195;BME280;64964;48.694;21.206;2023-02-28T08:43:51;99098.41;;;4.08;44.83
76195;BME280;64964;48.694;21.206;2023-02-28T08:46:16;99099.13;;;3.97;44.26
76195;BME280;64964;48.694;21.206;2023-02-28T08:48:42;99094.47;;;3.88;45.04
76195;BME280;64964;48.694;21.206;2023-02-28T08:51:11;99096.19;;;3.89;45.36
76195;BME280;64964;48.694;21.206;2023-02-28T08:53:38;99091.88;;;3.88;45.23
76195;BME280;64964;48.694;21.206;2023-02-28T08:56:09;99086.63;;;3.88;45.62
76195;BME280;64964;48.694;21.206;2023-02-28T08:58:35;99090.03;;;3.76;44.11
76195;BME280;64964;48.694;21.206;2023-02-28T09:01:10;99098.03;;;3.87;45.18
76195;BME280;64964;48.694;21.206;2023-02-28T09:03:36;99102.56;;;3.85;45.27
76195;BME280;64964;48.694;21.206;2023-02-28T09:06:02;99093.16;;;3.95;45.55
76195;BME280;64964;48.694;21.206;2023-02-28T09:08:28;99089.72;;;4.08;45.57
76195;BME280;64964;48.694;21.206;2023-02-28T09:10:54;99100.72;;;4.13;44.85
76195;BME280;64964;48.694;21.206;2023-02-28T09:13:22;99088.41;;;4.28;45.17
76195;BME280;64964;48.694;21.206;2023-02-28T09:15:47;99089.13;;;4.42;44.92
76195;BME280;64964;48.694;21.206;2023-02-28T09:18:13;99098.47;;;4.59;45.00
76195;BME280;64964;48.694;21.206;2023-02-28T09:20:40;99094.38;;;4.68;44.67
76195;BME280;64964;48.694;21.206;2023-02-28T09:23:10;99102.03;;;4.71;44.26
76195;BME280;64964;48.694;21.206;2023-02-28T09:25:36;99095.63;;;4.75;44.71
76195;BME280;64964;48.694;21.206;2023-02-28T09:28:02;99093.53;;;4.80;44.34
76195;BME280;64964;48.694;21.206;2023-02-28T09:30:27;99088.22;;;4.82;44.34
76195;BME280;64964;48.694;21.206;2023-02-28T09:32:54;99095.53;;;4.89;44.14
76195;BME280;64964;48.694;21.206;2023-02-28T09:35:23;99098.56;;;4.96;43.65
76195;BME280;64964;48.694;21.206;2023-02-28T09:37:50;99095.72;;;4.99;44.06
76195;BME280;64964;48.694;21.206;2023-02-28T09:40:22;99092.34;;;4.97;42.75
76195;BME280;64964;48.694;21.206;2023-02-28T09:42:51;99090.16;;;5.04;43.94
76195;BME280;64964;48.694;21.206;2023-02-28T09:47:50;99091.88;;;5.29;44.18
76195;BME280;64964;48.694;21.206;2023-02-28T09:52:53;99088.69;;;5.49;43.76
76195;BME280;64964;48.694;21.206;2023-02-28T09:55:28;99087.38;;;5.55;43.26
76195;BME280;64964;48.694;21.206;2023-02-28T09:57:56;99090.22;;;5.64;43.50
76195;BME280;64964;48.694;21.206;2023-02-28T10:00:30;99084.50;;;5.70;42.87
76195;BME280;64964;48.694;21.206;2023-02-28T10:03:01;99088.56;;;5.74;41.97
76195;BME280;64964;48.694;21.206;2023-02-28T10:05:33;99084.50;;;5.70;42.82
76195;BME280;64964;48.694;21.206;2023-02-28T10:08:24;99088.63;;;5.62;40.86
76195;BME280;64964;48.694;21.206;2023-02-28T10:11:16;99094.22;;;5.57;41.43
76195;BME280;64964;48.694;21.206;2023-02-28T10:14:11;99092.00;;;5.51;41.95
76195;BME280;64964;48.694;21.206;2023-02-28T10:16:56;99079.09;;;5.61;42.32
76195;BME280;64964;48.694;21.206;2023-02-28T10:20:00;99069.81;;;5.68;42.80
76195;BME280;64964;48.694;21.206;2023-02-28T10:25:21;99077.56;;;5.93;43.54
76195;BME280;64964;48.694;21.206;2023-02-28T10:27:47;99076.44;;;6.09;43.50
76195;BME280;64964;48.694;21.206;2023-02-28T10:30:13;99076.13;;;6.24;43.32
76195;BME280;64964;48.694;21.206;2023-02-28T10:32:48;99072.84;;;6.45;42.17
76195;BME280;64964;48.694;21.206;2023-02-28T10:35:19;99063.53;;;6.63;42.94
76195;BME280;64964;48.694;21.206;2023-02-28T10:37:47;99068.94;;;6.84;42.30
76195;BME280;64964;48.694;21.206;2023-02-28T10:43:05;99068.91;;;7.18;41.29
76195;BME280;64964;48.694;21.206;2023-02-28T10:45:32;99058.38;;;7.40;41.83
76195;BME280;64964;48.694;21.206;2023-02-28T10:48:57;99064.00;;;7.68;41.84
76195;BME280;64964;48.694;21.206;2023-02-28T10:58:23;99043.31;;;8.79;40.30
76195;BME280;64964;48.694;21.206;2023-02-28T11:00:49;99051.44;;;9.07;40.60
76195;BME280;64964;48.694;21.206;2023-02-28T11:03:25;99038.09;;;9.58;39.61
76195;BME280;64964;48.694;21.206;2023-02-28T11:05:50;99038.91;;;10.17;39.42
76195;BME280;64964;48.694;21.206;2023-02-28T11:08:17;99038.44;;;10.60;37.62
76195;BME280;64964;48.694;21.206;2023-02-28T11:10:54;99038.03;;;10.92;36.39
76195;BME280;64964;48.694;21.206;2023-02-28T11:13:24;99038.69;;;11.04;35.74
76195;BME280;64964;48.694;21.206;2023-02-28T11:15:55;99034.88;;;11.16;36.41
76195;BME280;64964;48.694;21.206;2023-02-28T11:18:42;99036.00;;;11.32;37.24
76195;BME280;64964;48.694;21.206;2023-02-28T11:21:10;99032.19;;;11.62;36.64
76195;BME280;64964;48.694;21.206;2023-02-28T11:23:41;99031.22;;;11.99;36.84
76195;BME280;64964;48.694;21.206;2023-02-28T11:26:07;99032.31;;;12.32;36.34
76195;BME280;64964;48.694;21.206;2023-02-28T11:28:41;99027.59;;;12.43;34.79
76195;BME280;64964;48.694;21.206;2023-02-28T11:33:51;99026.13;;;12.49;34.96
76195;BME280;64964;48.694;21.206;2023-02-28T11:36:31;99026.09;;;13.01;36.40
76195;BME280;64964;48.694;21.206;2023-02-28T11:39:07;99023.97;;;13.63;33.83
76195;BME280;64964;48.694;21.206;2023-02-28T11:44:16;99021.16;;;14.55;34.42
76195;BME280;64964;48.694;21.206;2023-02-28T11:46:49;99020.16;;;14.56;33.17
76195;BME280;64964;48.694;21.206;2023-02-28T11:49:32;99027.31;;;14.31;32.56
76195;BME280;64964;48.694;21.206;2023-02-28T12:03:49;99011.75;;;13.28;31.06
76195;BME280;64964;48.694;21.206;2023-02-28T12:06:40;98997.25;;;13.14;30.65
76195;BME280;64964;48.694;21.206;2023-02-28T12:12:21;99005.22;;;13.14;33.27
76195;BME280;64964;48.694;21.206;2023-02-28T12:17:29;98995.31;;;12.82;32.82
76195;BME280;64964;48.694;21.206;2023-02-28T12:28:12;98985.56;;;12.57;34.55
76195;BME280;64964;48.694;21.206;2023-02-28T12:30:42;98991.00;;;12.47;33.63
76195;BME280;64964;48.694;21.206;2023-02-28T12:33:14;98980.09;;;12.32;33.56
76195;BME280;64964;48.694;21.206;2023-02-28T12:35:48;98984.00;;;12.20;34.29
76195;BME280;64964;48.694;21.206;2023-02-28T12:38:18;98986.19;;;11.99;34.95
76195;BME280;64964;48.694;21.206;2023-02-28T12:40:52;98982.84;;;11.79;34.40
76195;BME280;64964;48.694;21.206;2023-02-28T12:43:20;98982.56;;;11.64;35.40
76195;BME280;64964;48.694;21.206;2023-02-28T12:45:57;98983.59;;;11.35;34.79
76195;BME280;64964;48.694;21.206;2023-02-28T12:48:29;98990.47;;;11.28;35.61
76195;BME280;64964;48.694;21.206;2023-02-28T12:50:57;98991.72;;;11.06;36.04
76195;BME280;64964;48.694;21.206;2023-02-28T12:58:57;98994.50;;;10.40;36.65
76195;BME280;64964;48.694;21.206;2023-02-28T13:01:31;98988.28;;;10.21;36.69
76195;BME280;64964;48.694;21.206;2023-02-28T13:04:25;98992.50;;;9.95;37.08
76195;BME280;64964;48.694;21.206;2023-02-28T13:10:00;98984.59;;;9.76;37.55
76195;BME280;64964;48.694;21.206;2023-02-28T13:12:27;98977.50;;;9.66;37.98
76195;BME280;64964;48.694;21.206;2023-02-28T13:15:05;98983.34;;;9.51;38.01
76195;BME280;64964;48.694;21.206;2023-02-28T13:17:39;98977.22;;;9.40;38.74
76195;BME280;64964;48.694;21.206;2023-02-28T13:20:15;98981.25;;;9.35;38.75
76195;BME280;64964;48.694;21.206;2023-02-28T13:22:47;98974.31;;;9.34;38.69
76195;BME280;64964;48.694;21.206;2023-02-28T13:27:48;98971.94;;;9.21;39.13
76195;BME280;64964;48.694;21.206;2023-02-28T13:35:48;98965.44;;;8.85;39.27
76195;BME280;64964;48.694;21.206;2023-02-28T13:38:23;98972.91;;;8.70;39.71
76195;BME280;64964;48.694;21.206;2023-02-28T13:40:49;98961.38;;;8.61;40.09
76195;BME280;64964;48.694;21.206;2023-02-28T13:43:16;98957.59;;;8.54;40.23
76195;BME280;64964;48.694;21.206;2023-02-28T13:46:10;98957.72;;;8.53;40.44
76195;BME280;64964;48.694;21.206;2023-02-28T13:48:37;98954.97;;;8.54;40.41
76195;BME280;64964;48.694;21.206;2023-02-28T13:54:03;98953.25;;;8.43;40.44
76195;BME280;64964;48.694;21.206;2023-02-28T14:00:07;98960.84;;;8.37;40.42
76195;BME280;64964;48.694;21.206;2023-02-28T14:05:19;98959.44;;;8.12;41.11
76195;BME280;64964;48.694;21.206;2023-02-28T14:07:56;98957.72;;;8.01;41.04
76195;BME280;64964;48.694;21.206;2023-02-28T14:10:31;98960.03;;;7.94;41.35
76195;BME280;64964;48.694;21.206;2023-02-28T14:15:59;98953.16;;;7.82;41.75
76195;BME280;64964;48.694;21.206;2023-02-28T14:18:33;98954.97;;;7.82;42.07
76195;BME280;64964;48.694;21.206;2023-02-28T14:21:29;98961.31;;;7.79;42.17
76195;BME280;64964;48.694;21.206;2023-02-28T14:35:35;98955.38;;;7.45;42.82
76195;BME280;64964;48.694;21.206;2023-02-28T14:38:06;98955.88;;;7.39;42.61
76195;BME280;64964;48.694;21.206;2023-02-28T14:40:38;98952.66;;;7.35;42.71
76195;BME280;64964;48.694;21.206;2023-02-28T14:43:06;98947.53;;;7.34;42.72
76195;BME280;64964;48.694;21.206;2023-02-28T14:45:33;98950.69;;;7.28;42.94
76195;BME280;64964;48.694;21.206;2023-02-28T14:48:02;98947.56;;;7.22;42.98
76195;BME280;64964;48.694;21.206;2023-02-28T14:50:34;98954.16;;;7.17;43.26
76195;BME280;64964;48.694;21.206;2023-02-28T14:53:00;98951.06;;;7.12;43.21
76195;BME280;64964;48.694;21.206;2023-02-28T14:55:30;98947.03;;;7.08;43.51
76195;BME280;64964;48.694;21.206;2023-02-28T14:58:00;98944.63;;;7.05;43.22
76195;BME280;64964;48.694;21.206;2023-02-28T15:00:34;98946.91;;;6.98;43.66
76195;BME280;64964;48.694;21.206;2023-02-28T15:03:18;98945.75;;;6.91;44.35
76195;BME280;64964;48.694;21.206;2023-02-28T15:05:54;98947.91;;;6.86;43.41
76195;BME280;64964;48.694;21.206;2023-02-28T15:08:20;98940.97;;;6.85;43.83
76195;BME280;64964;48.694;21.206;2023-02-28T15:11:16;98949.22;;;6.80;43.93
76195;BME280;64964;48.694;21.206;2023-02-28T15:13:52;98953.78;;;6.78;43.87
76195;BME280;64964;48.694;21.206;2023-02-28T15:16:22;98956.78;;;6.73;44.06